Clarks, Texas
Current Conditions -  °F | °C
As of 6:15 AM on Friday 24 Oct 2014 (Local Time) from KPKV Reporting Station
Clear Clear  
Wind Chill: 59°   Ceiling: Unl
Heat Index: 59°   Visibility: 10mi
Dew Point: 57°   Wind: 3mph
Humidity: 91%   Direction: 30°NNE
Pressure: 30.11"   Gusts: NA
Location:  28.5342°N, 96.663°W
Report Text: KPKV 241115Z AUTO 03003KT 10SM CLR 15/14 A3011 RMK AO2 T01520138
Loading
Personal Weather Stations






























Interactive Weather Map
Tropical Storm Tracking
New forecast layout! Learn more

10-Day Weather Forecast

Advertisements
Track Severe Weather on mobile